createdAt,value
2023-02-09T00:01:25.322Z,16.07
2023-02-09T00:04:00.906Z,17.17
2023-02-09T00:06:30.636Z,15.37
2023-02-09T00:08:59.824Z,16.63
2023-02-09T00:11:50.254Z,15.07
2023-02-09T00:14:21.988Z,15.83
2023-02-09T00:16:52.490Z,16.53
2023-02-09T00:19:22.574Z,19.47
2023-02-09T00:21:50.671Z,15.63
2023-02-09T00:24:24.461Z,17.23
2023-02-09T00:26:52.779Z,15.53
2023-02-09T00:29:24.278Z,15.87
2023-02-09T00:31:53.933Z,17.20
2023-02-09T00:34:22.482Z,14.83
2023-02-09T00:36:52.333Z,17.70
2023-02-09T00:39:20.814Z,12.30
2023-02-09T00:42:07.120Z,17.97
2023-02-09T00:44:37.346Z,17.57
2023-02-09T00:47:07.023Z,17.57
2023-02-09T00:49:37.425Z,17.90
2023-02-09T00:52:05.798Z,17.53
2023-02-09T00:54:34.796Z,18.30
2023-02-09T00:57:06.512Z,18.37
2023-02-09T00:59:35.989Z,17.00
2023-02-09T01:02:06.123Z,16.70
2023-02-09T01:04:34.910Z,17.63
2023-02-09T01:07:03.002Z,17.33
2023-02-09T01:09:31.178Z,20.70
2023-02-09T01:12:00.673Z,16.43
2023-02-09T01:14:29.036Z,15.43
2023-02-09T01:16:57.667Z,18.20
2023-02-09T01:19:27.214Z,16.73
2023-02-09T01:21:55.241Z,17.90
2023-02-09T01:24:26.299Z,15.57
2023-02-09T01:26:54.562Z,15.73
2023-02-09T01:29:23.330Z,14.83
2023-02-09T01:31:51.573Z,18.27
2023-02-09T01:34:20.096Z,17.73
2023-02-09T01:36:49.111Z,18.63
2023-02-09T01:39:20.501Z,18.00
2023-02-09T01:41:48.635Z,16.47
2023-02-09T01:44:16.626Z,14.97
2023-02-09T01:46:44.869Z,16.57
2023-02-09T01:49:20.485Z,19.40
2023-02-09T01:52:08.439Z,15.97
2023-02-09T01:54:43.518Z,18.43
2023-02-09T01:57:17.568Z,14.97
2023-02-09T01:59:48.162Z,17.13
2023-02-09T02:02:16.590Z,17.37
2023-02-09T02:04:44.986Z,15.60
2023-02-09T02:07:18.980Z,14.60
2023-02-09T02:09:59.224Z,16.63
2023-02-09T02:12:28.344Z,17.80
2023-02-09T02:14:56.408Z,18.30
2023-02-09T02:17:33.193Z,15.33
2023-02-09T02:20:10.610Z,17.87
2023-02-09T02:23:06.000Z,16.87
2023-02-09T02:26:20.628Z,17.83
2023-02-09T02:29:18.201Z,16.50
2023-02-09T02:32:01.379Z,16.50
2023-02-09T02:34:38.227Z,16.00
2023-02-09T02:37:20.217Z,17.60
2023-02-09T02:39:52.985Z,16.60
2023-02-09T02:42:49.723Z,16.87
2023-02-09T02:45:40.883Z,16.30
2023-02-09T02:48:26.708Z,16.50
2023-02-09T02:51:00.744Z,16.27
2023-02-09T02:53:30.448Z,17.10
2023-02-09T02:56:08.278Z,18.00
2023-02-09T02:58:38.185Z,16.37
2023-02-09T03:01:09.325Z,21.37
2023-02-09T03:03:38.826Z,22.60
2023-02-09T03:06:07.995Z,22.03
2023-02-09T03:08:53.814Z,23.57
2023-02-09T03:11:24.309Z,19.07
2023-02-09T03:14:12.501Z,19.50
2023-02-09T03:16:46.804Z,18.20
2023-02-09T03:19:29.164Z,18.70
2023-02-09T03:22:01.255Z,17.20
2023-02-09T03:24:31.064Z,18.00
2023-02-09T03:27:12.308Z,17.33
2023-02-09T03:29:41.987Z,18.70
2023-02-09T03:32:11.165Z,18.30
2023-02-09T03:34:39.412Z,17.33
2023-02-09T03:37:07.697Z,18.97
2023-02-09T03:39:36.308Z,17.10
2023-02-09T03:42:05.277Z,16.13
2023-02-09T03:44:33.860Z,18.33
2023-02-09T03:47:07.417Z,18.57
2023-02-09T03:49:41.052Z,18.27
2023-02-09T03:52:11.672Z,16.43
2023-02-09T03:54:40.323Z,19.97
2023-02-09T03:57:09.111Z,17.23
2023-02-09T03:59:40.090Z,18.93
2023-02-09T04:02:10.043Z,18.37
2023-02-09T04:04:38.639Z,18.93
2023-02-09T04:07:07.476Z,18.77
2023-02-09T04:09:38.427Z,16.83
2023-02-09T04:12:08.126Z,17.17
2023-02-09T04:14:39.451Z,18.00
2023-02-09T04:17:08.921Z,18.43
2023-02-09T04:19:40.301Z,17.70
2023-02-09T04:22:08.562Z,17.90
2023-02-09T04:24:36.734Z,18.50
2023-02-09T04:27:05.410Z,18.90
2023-02-09T04:29:34.054Z,19.13
2023-02-09T04:32:02.050Z,19.03
2023-02-09T04:34:30.807Z,18.47
2023-02-09T04:37:02.715Z,17.13
2023-02-09T04:39:30.968Z,17.63
2023-02-09T04:41:59.853Z,18.03
2023-02-09T04:44:28.121Z,20.87
2023-02-09T04:46:59.157Z,18.37
2023-02-09T04:49:27.565Z,18.93
2023-02-09T04:51:55.790Z,19.23
2023-02-09T04:54:23.685Z,17.23
2023-02-09T04:57:11.881Z,18.30
2023-02-09T04:59:41.876Z,18.70
2023-02-09T05:02:10.042Z,20.50
2023-02-09T05:04:38.147Z,20.17
2023-02-09T05:07:10.871Z,18.33
2023-02-09T05:09:39.550Z,19.07
2023-02-09T05:12:10.404Z,19.23
2023-02-09T05:14:39.008Z,19.63
2023-02-09T05:17:07.178Z,22.40
2023-02-09T05:19:37.091Z,20.90
2023-02-09T05:22:05.084Z,23.17
2023-02-09T05:24:33.780Z,23.93
2023-02-09T05:27:02.039Z,21.63
2023-02-09T05:29:30.634Z,23.83
2023-02-09T05:31:58.999Z,22.67
2023-02-09T05:34:27.612Z,23.43
2023-02-09T05:36:56.180Z,24.33
2023-02-09T05:39:24.296Z,24.30
2023-02-09T05:42:11.036Z,20.67
2023-02-09T05:44:39.239Z,22.33
2023-02-09T05:47:08.110Z,24.37
2023-02-09T05:49:36.463Z,26.53
2023-02-09T05:52:04.529Z,25.63
2023-02-09T05:54:33.268Z,25.30
2023-02-09T05:57:02.113Z,27.07
2023-02-09T05:59:30.537Z,26.73
2023-02-09T06:01:59.917Z,25.27
2023-02-09T06:04:30.390Z,24.90
2023-02-09T06:06:59.673Z,23.50
2023-02-09T06:09:28.465Z,24.23
2023-02-09T06:12:00.097Z,27.40
2023-02-09T06:14:29.338Z,24.43
2023-02-09T06:16:57.782Z,25.47
2023-02-09T06:19:26.181Z,28.50
2023-02-09T06:21:56.056Z,27.27
2023-02-09T06:24:24.606Z,30.60
2023-02-09T06:26:52.968Z,27.30
2023-02-09T06:29:21.078Z,29.77
2023-02-09T06:31:49.704Z,32.73
2023-02-09T06:34:18.253Z,30.20
2023-02-09T06:36:46.189Z,30.03
2023-02-09T06:39:14.305Z,28.43
2023-02-09T06:41:44.829Z,28.63
2023-02-09T06:44:16.116Z,24.13
2023-02-09T06:46:44.537Z,30.80
2023-02-09T06:49:12.962Z,27.90
2023-02-09T06:51:42.995Z,29.87
2023-02-09T06:54:20.491Z,31.07
2023-02-09T06:56:50.011Z,30.70
2023-02-09T06:59:18.567Z,29.10
2023-02-09T07:01:55.113Z,26.40
2023-02-09T07:04:23.611Z,27.40
2023-02-09T07:06:51.975Z,27.20
2023-02-09T07:09:20.296Z,26.90
2023-02-09T07:11:49.120Z,27.27
2023-02-09T07:14:20.635Z,27.63
2023-02-09T07:16:48.791Z,26.00
2023-02-09T07:19:16.829Z,27.53
2023-02-09T07:21:44.712Z,25.33
2023-02-09T07:24:13.239Z,24.27
2023-02-09T07:26:41.298Z,25.73
2023-02-09T07:29:12.625Z,25.23
2023-02-09T07:31:41.152Z,25.30
2023-02-09T07:34:10.215Z,25.53
2023-02-09T07:36:39.454Z,26.07
2023-02-09T07:39:07.737Z,27.70
2023-02-09T07:41:41.432Z,25.73
2023-02-09T07:44:10.935Z,24.70
2023-02-09T07:46:39.331Z,26.20
2023-02-09T07:49:07.503Z,28.53
2023-02-09T07:51:36.044Z,29.10
2023-02-09T07:54:07.228Z,26.63
2023-02-09T07:56:35.941Z,28.83
2023-02-09T07:59:16.962Z,29.13
2023-02-09T08:01:45.344Z,32.60
2023-02-09T08:04:13.767Z,28.60
2023-02-09T08:06:48.048Z,28.17
2023-02-09T08:09:20.034Z,29.00
2023-02-09T08:11:54.309Z,28.97
2023-02-09T08:14:29.610Z,28.50
2023-02-09T08:17:20.145Z,27.30
2023-02-09T08:20:04.031Z,28.60
2023-02-09T08:22:35.915Z,28.93
2023-02-09T08:25:08.169Z,26.97
2023-02-09T08:27:39.837Z,26.57
2023-02-09T08:30:08.920Z,27.47
2023-02-09T08:32:39.520Z,26.27
2023-02-09T08:35:08.507Z,26.80
2023-02-09T08:37:40.984Z,25.90
2023-02-09T08:40:11.364Z,24.33
2023-02-09T08:42:46.961Z,24.47
2023-02-09T08:45:16.011Z,19.70
2023-02-09T08:47:44.976Z,25.80
2023-02-09T08:50:13.992Z,24.80
2023-02-09T08:52:43.161Z,25.07
2023-02-09T08:55:11.533Z,24.87
2023-02-09T08:57:44.419Z,25.57
2023-02-09T09:00:14.976Z,25.27
2023-02-09T09:02:46.850Z,25.97
2023-02-09T09:05:15.742Z,28.40
2023-02-09T09:07:45.202Z,28.17
2023-02-09T09:10:14.679Z,25.73
2023-02-09T09:12:44.019Z,26.50
2023-02-09T09:15:12.539Z,26.17
2023-02-09T09:17:40.764Z,27.60
2023-02-09T09:20:09.265Z,27.60
2023-02-09T09:22:37.655Z,29.77
2023-02-09T09:25:06.724Z,27.70
2023-02-09T09:27:37.793Z,26.93
2023-02-09T09:30:10.362Z,27.77
2023-02-09T09:32:39.974Z,26.17
2023-02-09T09:35:08.895Z,25.27
2023-02-09T09:37:37.896Z,24.70
2023-02-09T09:40:06.677Z,24.50
2023-02-09T09:42:42.425Z,25.07
2023-02-09T09:45:17.037Z,23.20
2023-02-09T09:47:45.718Z,22.07
2023-02-09T09:50:26.072Z,22.70
2023-02-09T09:53:02.649Z,23.83
2023-02-09T09:55:32.789Z,21.57
2023-02-09T09:58:05.493Z,21.40
2023-02-09T10:00:41.104Z,24.95
2023-02-09T10:03:17.856Z,22.20
2023-02-09T10:05:49.981Z,29.73
2023-02-09T10:08:22.509Z,24.47
2023-02-09T10:11:01.687Z,22.60
2023-02-09T10:13:50.659Z,17.60
2023-02-09T10:16:34.956Z,20.97
2023-02-09T10:19:05.803Z,18.87
2023-02-09T10:21:37.451Z,21.43
2023-02-09T10:24:27.966Z,19.50
2023-02-09T10:27:14.734Z,20.07
2023-02-09T10:29:43.178Z,17.17
2023-02-09T10:32:17.522Z,24.05
2023-02-09T10:34:57.603Z,17.03
2023-02-09T10:37:27.884Z,15.27
2023-02-09T10:40:17.378Z,14.90
2023-02-09T10:42:56.336Z,14.37
2023-02-09T10:45:29.755Z,14.73
2023-02-09T10:48:21.039Z,11.40
2023-02-09T10:50:58.017Z,12.60
2023-02-09T10:53:36.540Z,15.57
2023-02-09T10:56:10.360Z,13.93
2023-02-09T10:58:41.242Z,14.13
2023-02-09T11:01:09.557Z,12.17
2023-02-09T11:03:55.919Z,12.07
2023-02-09T11:06:24.260Z,11.67
2023-02-09T11:09:07.057Z,11.97
2023-02-09T11:11:40.658Z,11.80
2023-02-09T11:14:15.228Z,11.00
2023-02-09T11:17:06.687Z,13.83
2023-02-09T11:20:04.791Z,11.47
2023-02-09T11:23:03.801Z,10.97
2023-02-09T11:25:44.094Z,12.87
2023-02-09T11:28:33.659Z,13.63
2023-02-09T11:31:35.495Z,13.07
2023-02-09T11:34:29.702Z,12.10
2023-02-09T11:37:25.777Z,12.17
2023-02-09T11:40:13.832Z,12.77
2023-02-09T11:42:49.173Z,11.83
2023-02-09T11:45:31.415Z,11.43
2023-02-09T11:48:18.571Z,11.10
2023-02-09T11:51:08.936Z,12.37
2023-02-09T11:53:47.945Z,12.97
2023-02-09T11:56:22.505Z,13.47
2023-02-09T11:58:59.018Z,12.33
2023-02-09T12:01:45.038Z,11.27
2023-02-09T12:04:19.149Z,11.97
2023-02-09T12:06:51.657Z,12.07
2023-02-09T12:09:28.956Z,11.97
2023-02-09T12:12:24.787Z,11.07
2023-02-09T12:15:18.559Z,10.20
2023-02-09T12:18:00.844Z,11.07
2023-02-09T12:20:33.288Z,8.97
2023-02-09T12:23:31.960Z,10.07
2023-02-09T12:26:31.973Z,10.00
2023-02-09T12:29:28.781Z,10.47
2023-02-09T12:32:07.415Z,10.60
2023-02-09T12:34:35.781Z,11.40
2023-02-09T12:37:20.561Z,10.63
2023-02-09T12:40:06.760Z,10.53
2023-02-09T12:42:46.048Z,11.30
2023-02-09T12:45:44.334Z,11.23
2023-02-09T12:48:17.963Z,12.20
2023-02-09T12:50:53.542Z,12.37
2023-02-09T12:53:24.857Z,13.10
2023-02-09T12:56:22.585Z,13.40
2023-02-09T12:58:50.696Z,13.17
2023-02-09T13:01:21.884Z,12.87
2023-02-09T13:04:06.054Z,12.77
2023-02-09T13:06:48.870Z,11.03
2023-02-09T13:09:30.188Z,11.17
2023-02-09T13:12:20.339Z,12.50
2023-02-09T13:14:51.108Z,12.87
2023-02-09T13:17:43.560Z,13.47
2023-02-09T13:20:33.402Z,14.87
2023-02-09T13:23:17.831Z,14.17
2023-02-09T13:25:47.738Z,14.53
2023-02-09T13:28:19.147Z,16.38
2023-02-09T13:30:48.136Z,16.27
2023-02-09T13:33:42.773Z,11.37
2023-02-09T13:36:24.101Z,11.30
2023-02-09T13:38:56.358Z,12.17
2023-02-09T13:41:27.323Z,11.33
2023-02-09T13:43:56.066Z,10.40
2023-02-09T13:46:35.457Z,10.53
2023-02-09T13:49:16.482Z,11.70
2023-02-09T13:51:45.125Z,12.33
2023-02-09T13:54:21.455Z,13.10
2023-02-09T13:56:53.034Z,11.53
2023-02-09T13:59:21.218Z,11.17
2023-02-09T14:01:49.870Z,11.97
2023-02-09T14:04:25.861Z,12.37
2023-02-09T14:07:05.637Z,12.37
2023-02-09T14:09:59.637Z,12.03
2023-02-09T14:12:56.050Z,12.90
2023-02-09T14:15:54.905Z,13.07
2023-02-09T14:18:31.048Z,13.87
2023-02-09T14:21:11.605Z,13.93
2023-02-09T14:23:41.488Z,13.43
2023-02-09T14:26:16.001Z,15.30
2023-02-09T14:28:52.494Z,14.47
2023-02-09T14:31:26.346Z,14.60
2023-02-09T14:33:55.951Z,15.37
2023-02-09T14:36:36.589Z,14.87
2023-02-09T14:39:20.400Z,13.10
2023-02-09T14:42:12.908Z,14.27
2023-02-09T14:44:49.059Z,15.20
2023-02-09T14:47:39.373Z,13.90
2023-02-09T14:50:12.687Z,15.10
2023-02-09T14:52:47.060Z,13.83
2023-02-09T14:55:24.472Z,15.60
2023-02-09T14:57:52.900Z,14.83
2023-02-09T15:00:24.691Z,15.07
2023-02-09T15:02:54.403Z,15.77
2023-02-09T15:05:27.214Z,15.37
2023-02-09T15:08:04.253Z,15.93
2023-02-09T15:10:45.118Z,15.60
2023-02-09T15:13:15.527Z,16.43
2023-02-09T15:15:49.062Z,16.47
2023-02-09T15:18:25.775Z,15.13
2023-02-09T15:20:54.060Z,15.83
2023-02-09T15:23:22.370Z,16.10
2023-02-09T15:25:50.772Z,16.90
2023-02-09T15:28:31.746Z,16.87
2023-02-09T15:31:00.477Z,15.97
2023-02-09T15:33:29.913Z,23.27
2023-02-09T15:35:59.861Z,19.23
2023-02-09T15:38:29.792Z,17.60
2023-02-09T15:41:16.360Z,17.17
2023-02-09T15:44:11.174Z,17.30
2023-02-09T15:47:04.814Z,17.10
2023-02-09T15:49:34.174Z,22.40
2023-02-09T15:52:02.612Z,17.97
2023-02-09T15:54:35.192Z,26.38
2023-02-09T15:57:03.616Z,20.63
2023-02-09T15:59:32.502Z,19.63
2023-02-09T16:02:04.019Z,19.07
2023-02-09T16:04:35.233Z,19.37
2023-02-09T16:07:06.944Z,19.63
2023-02-09T16:10:02.333Z,21.43
2023-02-09T16:12:35.821Z,20.40
2023-02-09T16:15:13.863Z,23.13
2023-02-09T16:17:45.998Z,23.00
2023-02-09T16:20:19.613Z,24.73
2023-02-09T16:22:50.214Z,22.90
2023-02-09T16:25:24.410Z,23.77
2023-02-09T16:27:54.480Z,26.83
2023-02-09T16:30:31.516Z,37.77
2023-02-09T16:33:00.275Z,32.17
2023-02-09T16:35:31.996Z,42.60
2023-02-09T16:38:01.084Z,45.40
2023-02-09T16:40:34.010Z,48.60
2023-02-09T16:43:02.530Z,73.63
2023-02-09T16:45:31.784Z,61.27
2023-02-09T16:48:00.092Z,62.40
2023-02-09T16:50:34.783Z,51.13
2023-02-09T16:53:12.785Z,52.27
2023-02-09T16:55:42.843Z,54.80
2023-02-09T16:58:13.998Z,60.92
2023-02-09T17:00:44.062Z,56.97
2023-02-09T17:03:20.534Z,53.20
2023-02-09T17:05:52.939Z,51.00
2023-02-09T17:08:23.879Z,47.60
2023-02-09T17:10:54.680Z,60.77
2023-02-09T17:13:23.480Z,55.57
2023-02-09T17:15:59.843Z,56.73
2023-02-09T17:18:31.977Z,83.70
2023-02-09T17:21:09.428Z,57.07
2023-02-09T17:23:38.194Z,55.00
2023-02-09T17:26:06.573Z,55.27
2023-02-09T17:28:42.948Z,50.03
2023-02-09T17:31:36.078Z,63.20
2023-02-09T17:34:14.087Z,57.93
2023-02-09T17:36:45.298Z,65.60
2023-02-09T17:39:16.859Z,67.20
2023-02-09T17:41:46.970Z,59.20
2023-02-09T17:44:31.927Z,65.37
2023-02-09T17:47:17.542Z,47.13
2023-02-09T17:49:45.665Z,52.90
2023-02-09T17:52:20.907Z,53.90
2023-02-09T17:54:49.849Z,52.93
2023-02-09T17:57:18.202Z,47.83
2023-02-09T17:59:47.317Z,40.00
2023-02-09T18:02:17.884Z,36.57
2023-02-09T18:04:46.142Z,34.97
2023-02-09T18:07:20.680Z,32.47
2023-02-09T18:09:49.158Z,37.23
2023-02-09T18:12:21.298Z,35.93
2023-02-09T18:14:49.402Z,34.80
2023-02-09T18:17:17.624Z,36.40
2023-02-09T18:19:46.606Z,38.57
2023-02-09T18:22:20.473Z,37.57
2023-02-09T18:24:49.327Z,43.67
2023-02-09T18:27:19.788Z,42.97
2023-02-09T18:29:48.161Z,42.17
2023-02-09T18:32:17.904Z,46.63
2023-02-09T18:34:46.911Z,45.70
2023-02-09T18:37:16.456Z,45.93
2023-02-09T18:39:46.920Z,46.20
2023-02-09T18:42:16.993Z,46.30
2023-02-09T18:44:46.512Z,45.80
2023-02-09T18:47:15.291Z,43.40
2023-02-09T18:49:43.773Z,55.10
2023-02-09T18:52:17.283Z,57.03
2023-02-09T18:54:45.930Z,63.00
2023-02-09T18:57:15.190Z,57.67
2023-02-09T18:59:47.699Z,55.07
2023-02-09T19:02:18.564Z,49.93
2023-02-09T19:04:47.384Z,50.40
2023-02-09T19:07:17.240Z,51.47
2023-02-09T19:09:46.368Z,52.60
2023-02-09T19:12:18.185Z,57.60
2023-02-09T19:14:46.842Z,57.27
2023-02-09T19:17:18.352Z,64.20
2023-02-09T19:19:50.755Z,63.97
2023-02-09T19:22:22.006Z,61.87
2023-02-09T19:24:53.262Z,61.73
2023-02-09T19:27:22.322Z,61.57
2023-02-09T19:29:55.943Z,59.53
2023-02-09T19:32:26.476Z,55.40
2023-02-09T19:34:55.637Z,55.10
2023-02-09T19:37:24.374Z,56.27
2023-02-09T19:40:05.192Z,53.93
2023-02-09T19:42:34.172Z,62.33
2023-02-09T19:45:02.320Z,53.90
2023-02-09T19:47:31.207Z,55.03
2023-02-09T19:49:59.737Z,54.30
2023-02-09T19:52:29.388Z,94.10
2023-02-09T19:54:58.864Z,58.90
2023-02-09T19:57:27.903Z,56.63
2023-02-09T19:59:56.030Z,79.60
2023-02-09T20:02:25.833Z,69.13
2023-02-09T20:04:57.559Z,68.03
2023-02-09T20:07:25.718Z,77.23
2023-02-09T20:09:58.470Z,83.10
2023-02-09T20:12:27.143Z,73.87
2023-02-09T20:14:55.373Z,64.97
2023-02-09T20:17:23.778Z,62.70
2023-02-09T20:19:52.068Z,75.93
2023-02-09T20:22:25.222Z,87.43
2023-02-09T20:24:53.598Z,80.00
2023-02-09T20:27:21.652Z,70.37
2023-02-09T20:29:50.982Z,61.17
2023-02-09T20:32:19.252Z,61.93
2023-02-09T20:34:47.556Z,61.73
2023-02-09T20:37:15.681Z,60.70
2023-02-09T20:39:46.226Z,57.47
2023-02-09T20:42:33.053Z,57.23
2023-02-09T20:45:21.434Z,48.50
2023-02-09T20:47:53.705Z,45.67
2023-02-09T20:50:22.044Z,51.33
2023-02-09T20:52:50.479Z,61.90
2023-02-09T20:55:18.925Z,46.43
2023-02-09T20:57:47.284Z,50.17
2023-02-09T21:00:16.145Z,63.00
2023-02-09T21:02:44.675Z,47.67
2023-02-09T21:05:13.034Z,54.03
2023-02-09T21:07:42.537Z,43.87
2023-02-09T21:10:13.427Z,45.27
2023-02-09T21:12:42.596Z,42.17
2023-02-09T21:15:11.568Z,44.80
2023-02-09T21:17:48.340Z,42.67
2023-02-09T21:20:17.369Z,38.27
2023-02-09T21:22:46.613Z,40.63
2023-02-09T21:25:15.792Z,39.27
2023-02-09T21:27:44.331Z,36.93
2023-02-09T21:30:14.420Z,37.97
2023-02-09T21:32:42.529Z,39.23
2023-02-09T21:35:11.327Z,39.00
2023-02-09T21:37:43.340Z,38.70
2023-02-09T21:40:13.234Z,40.43
2023-02-09T21:42:41.659Z,42.97
2023-02-09T21:45:10.389Z,50.03
2023-02-09T21:47:39.757Z,45.97
2023-02-09T21:50:11.232Z,41.47
2023-02-09T21:52:39.979Z,37.50
2023-02-09T21:55:08.592Z,42.83
2023-02-09T21:57:38.618Z,41.63
2023-02-09T22:00:09.359Z,40.07
2023-02-09T22:02:38.228Z,43.90
2023-02-09T22:05:07.432Z,44.73
2023-02-09T22:07:36.490Z,50.70
2023-02-09T22:10:06.166Z,45.17
2023-02-09T22:12:39.106Z,48.10
2023-02-09T22:15:08.041Z,53.50
2023-02-09T22:17:38.132Z,47.53
2023-02-09T22:20:07.179Z,47.40
2023-02-09T22:22:36.252Z,46.83
2023-02-09T22:25:04.590Z,41.10
2023-02-09T22:27:35.623Z,41.10
2023-02-09T22:30:04.011Z,47.50
2023-02-09T22:32:32.607Z,53.93
2023-02-09T22:35:01.508Z,45.30
2023-02-09T22:37:30.190Z,36.37
2023-02-09T22:39:59.589Z,35.97
2023-02-09T22:42:28.339Z,39.67
2023-02-09T22:44:58.891Z,38.57
2023-02-09T22:47:27.105Z,41.97
2023-02-09T22:49:55.342Z,46.97
2023-02-09T22:52:23.844Z,43.77
2023-02-09T22:54:53.871Z,43.40
2023-02-09T22:57:22.276Z,43.77
2023-02-09T22:59:53.402Z,41.67
2023-02-09T23:02:21.809Z,46.43
2023-02-09T23:04:50.088Z,49.17
2023-02-09T23:07:22.175Z,40.10
2023-02-09T23:09:50.625Z,42.47
2023-02-09T23:12:18.994Z,38.00
2023-02-09T23:14:47.371Z,38.77
2023-02-09T23:17:15.649Z,40.17
2023-02-09T23:19:45.286Z,38.73
2023-02-09T23:22:13.601Z,33.83
2023-02-09T23:24:42.751Z,37.60
2023-02-09T23:27:11.377Z,38.90
2023-02-09T23:29:40.386Z,36.97
2023-02-09T23:32:08.335Z,36.57
2023-02-09T23:34:37.723Z,40.77
2023-02-09T23:37:13.771Z,36.17
2023-02-09T23:39:51.538Z,39.27
2023-02-09T23:42:20.056Z,39.33
2023-02-09T23:44:48.312Z,39.53
2023-02-09T23:47:16.915Z,39.27
2023-02-09T23:49:44.905Z,40.77
2023-02-09T23:52:13.452Z,40.67
2023-02-09T23:54:41.981Z,40.20
2023-02-09T23:57:10.432Z,41.77
2023-02-09T23:59:39.362Z,41.37
